Time,TemperatureF,DewpointF,PressureIn,WindDirection,WindDirectionDegrees,WindSpeedMPH,WindSpeedGustMPH,Humidity,HourlyPrecipIn,Conditions,Clouds,dailyrainin,SolarRadiationWatts/m^2,SoftwareType,DateUTC
2013-03-10 00:02:00,55.0,27.0,-100.00,SSW,192,9.0,13.0,34,0.00,,,0.00,0.000000,,2013-03-10 05:02:00,
2013-03-10 00:32:00,55.0,27.0,-100.00,South,184,9.0,15.0,34,0.00,,,0.00,0.000000,,2013-03-10 05:32:00,
2013-03-10 00:42:00,55.0,27.0,-100.00,South,184,9.0,15.0,34,0.00,,,0.00,0.000000,,2013-03-10 05:42:00,
2013-03-10 00:52:00,55.0,27.0,-100.00,South,184,9.0,15.0,34,0.00,,,0.00,0.000000,,2013-03-10 05:52:00,
2013-03-10 01:02:00,55.0,27.0,-100.00,South,184,9.0,15.0,34,0.00,,,0.00,0.000000,,2013-03-10 06:02:00,
2013-03-10 01:32:00,54.0,27.0,-100.00,South,186,6.0,13.0,35,0.00,,,0.00,0.000000,,2013-03-10 06:32:00,
2013-03-10 01:42:00,54.0,27.0,-100.00,South,186,6.0,13.0,35,0.00,,,0.00,0.000000,,2013-03-10 06:42:00,
2013-03-10 01:52:00,54.0,27.0,-100.00,South,186,6.0,13.0,35,0.00,,,0.00,0.000000,,2013-03-10 06:52:00,
2013-03-10 03:02:00,54.0,27.0,-100.00,South,186,6.0,13.0,35,0.00,,,0.00,0.000000,,2013-03-10 07:02:00,
2013-03-10 03:32:00,54.0,28.0,-100.00,South,191,7.0,11.0,37,0.00,,,0.00,0.000000,,2013-03-10 07:32:00,
2013-03-10 03:42:00,54.0,28.0,-100.00,South,191,7.0,11.0,37,0.00,,,0.00,0.000000,,2013-03-10 07:42:00,
2013-03-10 03:52:00,54.0,28.0,-100.00,South,191,7.0,11.0,37,0.00,,,0.00,0.000000,,2013-03-10 07:52:00,
2013-03-10 04:01:00,54.0,28.0,-100.00,South,191,7.0,11.0,37,0.00,,,0.00,0.000000,,2013-03-10 08:01:00,
2013-03-10 04:32:00,53.0,29.0,-100.00,SSW,204,6.0,14.0,39,0.00,,,0.00,0.000000,,2013-03-10 08:32:00,
2013-03-10 04:42:00,53.0,29.0,-100.00,SSW,204,6.0,14.0,39,0.00,,,0.00,0.000000,,2013-03-10 08:42:00,
2013-03-10 04:52:00,53.0,29.0,-100.00,SSW,204,6.0,14.0,39,0.00,,,0.00,0.000000,,2013-03-10 08:52:00,
2013-03-10 05:02:00,53.0,29.0,-100.00,SSW,204,6.0,14.0,39,0.00,,,0.00,0.000000,,2013-03-10 09:02:00,
2013-03-10 05:32:00,53.0,29.0,-100.00,South,186,6.0,10.0,40,0.00,,,0.00,0.000000,,2013-03-10 09:32:00,
2013-03-10 05:42:00,53.0,29.0,-100.00,South,186,6.0,10.0,40,0.00,,,0.00,0.000000,,2013-03-10 09:42:00,
2013-03-10 05:52:00,53.0,29.0,-100.00,South,186,6.0,10.0,40,0.00,,,0.00,0.000000,,2013-03-10 09:52:00,
2013-03-10 06:02:00,53.0,29.0,-100.00,South,186,6.0,10.0,40,0.00,,,0.00,0.000000,,2013-03-10 10:02:00,
2013-03-10 06:32:00,51.0,29.0,-100.00,South,188,7.0,10.0,43,0.00,,,0.00,0.000000,,2013-03-10 10:32:00,
2013-03-10 06:42:00,51.0,29.0,-100.00,South,188,7.0,10.0,43,0.00,,,0.00,0.000000,,2013-03-10 10:42:00,
2013-03-10 06:52:00,51.0,29.0,-100.00,South,188,7.0,10.0,43,0.00,,,0.00,0.000000,,2013-03-10 10:52:00,
2013-03-10 07:01:00,51.0,29.0,-100.00,South,188,7.0,10.0,43,0.00,,,0.00,0.000000,,2013-03-10 11:01:00,
2013-03-10 09:32:00,53.0,29.0,-100.00,South,181,5.0,12.0,40,-99.99,,,0.00,38.000000,,2013-03-10 13:32:00,
2013-03-10 09:42:00,53.0,29.0,-100.00,South,181,5.0,12.0,40,-99.99,,,0.00,38.000000,,2013-03-10 13:42:00,
2013-03-10 09:52:00,53.0,29.0,-100.00,South,181,5.0,12.0,40,-99.99,,,0.00,38.000000,,2013-03-10 13:52:00,
2013-03-10 10:02:00,53.0,29.0,-100.00,South,181,5.0,12.0,40,-99.99,,,0.00,38.000000,,2013-03-10 14:02:00,
2013-03-10 10:32:00,57.0,32.0,-100.00,SSW,208,4.0,11.0,38,0.00,,,0.00,230.000000,,2013-03-10 14:32:00,
2013-03-10 10:42:00,57.0,32.0,-100.00,SSW,208,4.0,11.0,38,0.00,,,0.00,230.000000,,2013-03-10 14:42:00,
2013-03-10 10:52:00,57.0,32.0,-100.00,SSW,208,4.0,11.0,38,0.00,,,0.00,230.000000,,2013-03-10 14:52:00,
2013-03-10 11:01:00,57.0,32.0,-100.00,SSW,208,4.0,11.0,38,0.00,,,0.00,230.000000,,2013-03-10 15:01:00,
2013-03-10 11:32:00,61.0,29.0,-100.00,South,190,11.0,17.0,29,0.00,,,0.00,444.000000,,2013-03-10 15:32:00,
2013-03-10 11:42:00,61.0,29.0,-100.00,South,190,11.0,17.0,29,0.00,,,0.00,444.000000,,2013-03-10 15:42:00,
2013-03-10 11:52:00,61.0,29.0,-100.00,South,190,11.0,17.0,29,0.00,,,0.00,444.000000,,2013-03-10 15:52:00,
2013-03-10 12:02:00,61.0,29.0,-100.00,South,190,11.0,17.0,29,0.00,,,0.00,444.000000,,2013-03-10 16:02:00,
2013-03-10 12:32:00,61.0,29.0,-100.00,South,175,6.0,15.0,29,0.00,,,0.00,304.000000,,2013-03-10 16:32:00,
2013-03-10 12:42:00,61.0,29.0,-100.00,South,175,6.0,15.0,29,0.00,,,0.00,304.000000,,2013-03-10 16:42:00,
2013-03-10 12:52:00,61.0,29.0,-100.00,South,175,6.0,15.0,29,0.00,,,0.00,304.000000,,2013-03-10 16:52:00,
2013-03-10 13:01:00,61.0,29.0,-100.00,South,175,6.0,15.0,29,0.00,,,0.00,304.000000,,2013-03-10 17:01:00,
2013-03-10 15:32:00,72.0,26.0,-100.00,South,188,9.0,17.0,18,-99.99,,,0.00,686.000000,,2013-03-10 19:32:00,
2013-03-10 15:42:00,72.0,26.0,-100.00,South,188,9.0,17.0,18,-99.99,,,0.00,686.000000,,2013-03-10 19:42:00,
2013-03-10 15:53:00,72.0,26.0,-100.00,South,188,9.0,17.0,18,-99.99,,,0.00,686.000000,,2013-03-10 19:53:00,
2013-03-10 16:02:00,72.0,26.0,-100.00,South,188,9.0,17.0,18,-99.99,,,0.00,686.000000,,2013-03-10 20:02:00,
2013-03-10 16:33:00,74.0,25.0,-100.00,South,190,9.0,20.0,16,0.00,,,0.00,684.000000,,2013-03-10 20:33:00,
2013-03-10 16:43:00,74.0,25.0,-100.00,South,190,9.0,20.0,16,0.00,,,0.00,684.000000,,2013-03-10 20:43:00,
2013-03-10 16:53:00,74.0,25.0,-100.00,South,190,9.0,20.0,16,0.00,,,0.00,684.000000,,2013-03-10 20:53:00,
2013-03-10 17:02:00,74.0,25.0,-100.00,South,190,9.0,20.0,16,0.00,,,0.00,684.000000,,2013-03-10 21:02:00,
2013-03-10 17:33:00,73.0,27.0,-100.00,South,185,9.0,18.0,18,0.00,,,0.00,364.000000,,2013-03-10 21:33:00,
2013-03-10 17:43:00,73.0,27.0,-100.00,South,185,9.0,18.0,18,0.00,,,0.00,364.000000,,2013-03-10 21:43:00,
2013-03-10 17:53:00,73.0,27.0,-100.00,South,185,9.0,18.0,18,0.00,,,0.00,364.000000,,2013-03-10 21:53:00,
2013-03-10 18:03:00,73.0,27.0,-100.00,South,185,9.0,18.0,18,0.00,,,0.00,364.000000,,2013-03-10 22:03:00,
2013-03-10 18:33:00,69.0,25.0,-100.00,South,187,8.0,19.0,19,0.00,,,0.00,177.000000,,2013-03-10 22:33:00,
2013-03-10 18:43:00,69.0,25.0,-100.00,South,187,8.0,19.0,19,0.00,,,0.00,177.000000,,2013-03-10 22:43:00,
2013-03-10 18:53:00,69.0,25.0,-100.00,South,187,8.0,19.0,19,0.00,,,0.00,177.000000,,2013-03-10 22:53:00,
2013-03-10 19:03:00,69.0,25.0,-100.00,South,187,8.0,19.0,19,0.00,,,0.00,177.000000,,2013-03-10 23:03:00,
2013-03-10 19:33:00,68.0,28.0,-100.00,South,171,7.0,20.0,22,0.00,,,0.00,92.000000,,2013-03-10 23:33:00,
2013-03-10 19:43:00,68.0,28.0,-100.00,South,171,7.0,20.0,22,0.00,,,0.00,92.000000,,2013-03-10 23:43:00,
2013-03-10 19:53:00,68.0,28.0,-100.00,South,171,7.0,20.0,22,0.00,,,0.00,92.000000,,2013-03-10 23:53:00,
2013-03-10 20:02:00,68.0,28.0,-100.00,South,171,7.0,20.0,22,0.00,,,0.00,92.000000,,2013-03-11 00:02:00,
2013-03-10 20:33:00,66.0,28.0,-100.00,SSE,165,7.0,16.0,24,0.00,,,0.00,5.000000,,2013-03-11 00:33:00,
2013-03-10 20:43:00,66.0,28.0,-100.00,SSE,165,7.0,16.0,24,0.00,,,0.00,5.000000,,2013-03-11 00:43:00,
2013-03-10 20:53:00,66.0,28.0,-100.00,SSE,165,7.0,16.0,24,0.00,,,0.00,5.000000,,2013-03-11 00:53:00,
2013-03-10 21:03:00,66.0,28.0,-100.00,SSE,165,7.0,16.0,24,0.00,,,0.00,5.000000,,2013-03-11 01:03:00,
2013-03-10 21:33:00,64.0,29.0,-100.00,SSE,158,7.0,17.0,27,0.00,,,0.00,0.000000,,2013-03-11 01:33:00,
2013-03-10 21:43:00,64.0,29.0,-100.00,SSE,158,7.0,17.0,27,0.00,,,0.00,0.000000,,2013-03-11 01:43:00,
2013-03-10 21:53:00,64.0,29.0,-100.00,SSE,158,7.0,17.0,27,0.00,,,0.00,0.000000,,2013-03-11 01:53:00,
2013-03-10 22:03:00,64.0,29.0,-100.00,SSE,158,7.0,17.0,27,0.00,,,0.00,0.000000,,2013-03-11 02:03:00,
2013-03-10 22:32:00,64.0,31.0,-100.00,SSE,156,10.0,15.0,29,0.00,,,0.00,0.000000,,2013-03-11 02:32:00,
2013-03-10 22:42:00,64.0,31.0,-100.00,SSE,156,10.0,15.0,29,0.00,,,0.00,0.000000,,2013-03-11 02:42:00,
2013-03-10 22:53:00,64.0,31.0,-100.00,SSE,156,10.0,15.0,29,0.00,,,0.00,0.000000,,2013-03-11 02:53:00,
2013-03-10 23:02:00,64.0,31.0,-100.00,SSE,156,10.0,15.0,29,0.00,,,0.00,0.000000,,2013-03-11 03:02:00,
2013-03-10 23:32:00,63.0,30.0,-100.00,SSE,160,9.0,18.0,29,0.00,,,0.00,0.000000,,2013-03-11 03:32:00,
2013-03-10 23:43:00,63.0,30.0,-100.00,SSE,160,9.0,18.0,29,0.00,,,0.00,0.000000,,2013-03-11 03:43:00,
2013-03-10 23:53:00,63.0,30.0,-100.00,SSE,160,9.0,18.0,29,0.00,,,0.00,0.000000,,2013-03-11 03:53:00,